sensor_id;sensor_type;location;lat;lon;timestamp;pressure;altitude;pressure_sealevel;temperature;humidity
44934;BME280;30667;43.614;1.442;2023-05-02T00:01:36;100484.44;;;13.62;100.00
44934;BME280;30667;43.614;1.442;2023-05-02T00:04:02;100491.50;;;13.58;100.00
44934;BME280;30667;43.614;1.442;2023-05-02T00:06:29;100483.41;;;13.53;100.00
44934;BME280;30667;43.614;1.442;2023-05-02T00:08:55;100482.84;;;13.56;100.00
44934;BME280;30667;43.614;1.442;2023-05-02T00:11:21;100474.19;;;13.49;100.00
44934;BME280;30667;43.614;1.442;2023-05-02T00:13:48;100480.19;;;13.46;100.00
44934;BME280;30667;43.614;1.442;2023-05-02T00:16:14;100473.41;;;13.49;100.00
44934;BME280;30667;43.614;1.442;2023-05-02T00:18:40;100468.00;;;13.43;100.00
44934;BME280;30667;43.614;1.442;2023-05-02T00:21:07;100465.56;;;13.42;100.00
44934;BME280;30667;43.614;1.442;2023-05-02T00:23:32;100466.66;;;13.41;100.00
44934;BME280;30667;43.614;1.442;2023-05-02T00:25:58;100461.00;;;13.37;100.00
44934;BME280;30667;43.614;1.442;2023-05-02T00:28:23;100454.44;;;13.38;100.00
44934;BME280;30667;43.614;1.442;2023-05-02T00:30:50;100465.09;;;13.35;100.00
44934;BME280;30667;43.614;1.442;2023-05-02T00:33:16;100467.22;;;13.38;100.00
44934;BME280;30667;43.614;1.442;2023-05-02T00:35:41;100457.72;;;13.35;100.00
44934;BME280;30667;43.614;1.442;2023-05-02T00:38:06;100453.94;;;13.31;100.00
44934;BME280;30667;43.614;1.442;2023-05-02T00:40:50;100458.88;;;13.29;100.00
44934;BME280;30667;43.614;1.442;2023-05-02T00:43:17;100457.22;;;13.28;100.00
44934;BME280;30667;43.614;1.442;2023-05-02T00:45:43;100449.13;;;13.23;100.00
44934;BME280;30667;43.614;1.442;2023-05-02T00:48:10;100445.34;;;13.19;100.00
44934;BME280;30667;43.614;1.442;2023-05-02T00:50:37;100442.06;;;13.22;100.00
44934;BME280;30667;43.614;1.442;2023-05-02T00:53:03;100447.50;;;13.22;100.00
44934;BME280;30667;43.614;1.442;2023-05-02T00:55:30;100445.06;;;13.20;100.00
44934;BME280;30667;43.614;1.442;2023-05-02T00:57:57;100436.13;;;13.20;100.00
44934;BME280;30667;43.614;1.442;2023-05-02T01:00:35;100429.63;;;13.16;100.00
44934;BME280;30667;43.614;1.442;2023-05-02T01:06:23;100429.66;;;13.11;100.00
44934;BME280;30667;43.614;1.442;2023-05-02T01:09:48;100426.44;;;13.08;100.00
44934;BME280;30667;43.614;1.442;2023-05-02T01:14:21;100429.72;;;13.05;100.00
44934;BME280;30667;43.614;1.442;2023-05-02T01:16:49;100427.84;;;13.01;100.00
44934;BME280;30667;43.614;1.442;2023-05-02T01:19:24;100433.28;;;13.01;100.00
44934;BME280;30667;43.614;1.442;2023-05-02T01:21:52;100433.88;;;12.93;100.00
44934;BME280;30667;43.614;1.442;2023-05-02T01:24:27;100429.50;;;12.97;100.00
44934;BME280;30667;43.614;1.442;2023-05-02T01:26:58;100434.91;;;12.97;100.00
44934;BME280;30667;43.614;1.442;2023-05-02T01:29:28;100437.44;;;12.88;100.00
44934;BME280;30667;43.614;1.442;2023-05-02T01:31:56;100428.22;;;12.84;100.00
44934;BME280;30667;43.614;1.442;2023-05-02T01:34:24;100430.38;;;12.87;100.00
44934;BME280;30667;43.614;1.442;2023-05-02T01:36:53;100434.19;;;12.86;100.00
44934;BME280;30667;43.614;1.442;2023-05-02T01:39:21;100428.72;;;12.91;100.00
44934;BME280;30667;43.614;1.442;2023-05-02T01:41:49;100430.38;;;12.87;100.00
44934;BME280;30667;43.614;1.442;2023-05-02T01:44:18;100426.91;;;12.81;100.00
44934;BME280;30667;43.614;1.442;2023-05-02T01:46:45;100427.44;;;12.83;100.00
44934;BME280;30667;43.614;1.442;2023-05-02T01:49:11;100436.41;;;12.79;100.00
44934;BME280;30667;43.614;1.442;2023-05-02T01:51:43;100428.84;;;12.76;100.00
44934;BME280;30667;43.614;1.442;2023-05-02T01:54:12;100424.47;;;12.75;100.00
44934;BME280;30667;43.614;1.442;2023-05-02T01:56:38;100433.19;;;12.71;100.00
44934;BME280;30667;43.614;1.442;2023-05-02T01:59:07;100432.91;;;12.78;100.00
44934;BME280;30667;43.614;1.442;2023-05-02T02:01:35;100435.34;;;12.75;100.00
44934;BME280;30667;43.614;1.442;2023-05-02T02:04:03;100428.34;;;12.68;100.00
44934;BME280;30667;43.614;1.442;2023-05-02T02:06:31;100431.34;;;12.67;100.00
44934;BME280;30667;43.614;1.442;2023-05-02T02:08:56;100429.44;;;12.67;100.00
44934;BME280;30667;43.614;1.442;2023-05-02T02:11:36;100435.47;;;12.59;100.00
44934;BME280;30667;43.614;1.442;2023-05-02T02:14:13;100428.38;;;12.63;100.00
44934;BME280;30667;43.614;1.442;2023-05-02T02:16:41;100430.03;;;12.59;100.00
44934;BME280;30667;43.614;1.442;2023-05-02T02:19:09;100427.59;;;12.58;100.00
44934;BME280;30667;43.614;1.442;2023-05-02T02:21:38;100431.13;;;12.58;100.00
44934;BME280;30667;43.614;1.442;2023-05-02T02:24:06;100433.59;;;12.54;100.00
44934;BME280;30667;43.614;1.442;2023-05-02T02:26:32;100435.50;;;12.54;100.00
44934;BME280;30667;43.614;1.442;2023-05-02T02:29:02;100441.22;;;12.52;100.00
44934;BME280;30667;43.614;1.442;2023-05-02T02:31:35;100443.91;;;12.52;100.00
44934;BME280;30667;43.614;1.442;2023-05-02T02:34:04;100452.06;;;12.52;100.00
44934;BME280;30667;43.614;1.442;2023-05-02T02:36:54;100449.34;;;12.47;100.00
44934;BME280;30667;43.614;1.442;2023-05-02T02:42:13;100456.16;;;12.45;100.00
44934;BME280;30667;43.614;1.442;2023-05-02T02:45:04;100456.72;;;12.42;100.00
44934;BME280;30667;43.614;1.442;2023-05-02T03:00:20;100457.00;;;12.40;100.00
44934;BME280;30667;43.614;1.442;2023-05-02T03:02:47;100458.38;;;12.32;100.00
44934;BME280;30667;43.614;1.442;2023-05-02T03:05:13;100455.16;;;12.30;100.00
44934;BME280;30667;43.614;1.442;2023-05-02T03:07:39;100449.72;;;12.30;100.00
44934;BME280;30667;43.614;1.442;2023-05-02T03:10:05;100453.53;;;12.29;100.00
44934;BME280;30667;43.614;1.442;2023-05-02T03:12:31;100454.88;;;12.27;100.00
44934;BME280;30667;43.614;1.442;2023-05-02T03:17:38;100455.75;;;12.22;100.00
44934;BME280;30667;43.614;1.442;2023-05-02T03:20:03;100462.25;;;12.21;100.00
44934;BME280;30667;43.614;1.442;2023-05-02T03:22:29;100461.97;;;12.23;100.00
44934;BME280;30667;43.614;1.442;2023-05-02T03:24:54;100459.81;;;12.20;100.00
44934;BME280;30667;43.614;1.442;2023-05-02T03:27:20;100458.44;;;12.22;100.00
44934;BME280;30667;43.614;1.442;2023-05-02T03:29:45;100457.09;;;12.20;100.00
44934;BME280;30667;43.614;1.442;2023-05-02T03:32:11;100461.19;;;12.12;100.00
44934;BME280;30667;43.614;1.442;2023-05-02T03:34:37;100457.13;;;12.09;100.00
44934;BME280;30667;43.614;1.442;2023-05-02T03:37:02;100450.09;;;12.08;100.00
44934;BME280;30667;43.614;1.442;2023-05-02T03:39:28;100453.59;;;12.09;100.00
44934;BME280;30667;43.614;1.442;2023-05-02T03:41:53;100447.94;;;12.05;100.00
44934;BME280;30667;43.614;1.442;2023-05-02T03:44:19;100447.13;;;12.05;100.00
44934;BME280;30667;43.614;1.442;2023-05-02T03:46:44;100444.97;;;12.02;100.00
44934;BME280;30667;43.614;1.442;2023-05-02T03:49:09;100451.75;;;11.94;100.00
44934;BME280;30667;43.614;1.442;2023-05-02T03:51:35;100451.75;;;11.99;100.00
44934;BME280;30667;43.614;1.442;2023-05-02T03:54:00;100447.13;;;11.99;100.00
44934;BME280;30667;43.614;1.442;2023-05-02T03:56:26;100459.06;;;11.88;100.00
44934;BME280;30667;43.614;1.442;2023-05-02T03:58:52;100455.00;;;11.80;100.00
44934;BME280;30667;43.614;1.442;2023-05-02T04:01:18;100452.00;;;11.97;100.00
44934;BME280;30667;43.614;1.442;2023-05-02T04:03:43;100454.75;;;11.92;100.00
44934;BME280;30667;43.614;1.442;2023-05-02T04:06:09;100461.22;;;11.91;100.00
44934;BME280;30667;43.614;1.442;2023-05-02T04:08:34;100461.50;;;11.85;100.00
44934;BME280;30667;43.614;1.442;2023-05-02T04:11:01;100449.59;;;11.86;100.00
44934;BME280;30667;43.614;1.442;2023-05-02T04:13:26;100457.72;;;11.86;100.00
44934;BME280;30667;43.614;1.442;2023-05-02T04:15:53;100451.50;;;11.80;100.00
44934;BME280;30667;43.614;1.442;2023-05-02T04:18:18;100460.41;;;11.80;100.00
44934;BME280;30667;43.614;1.442;2023-05-02T04:20:44;100466.13;;;11.79;100.00
44934;BME280;30667;43.614;1.442;2023-05-02T04:23:10;100462.31;;;11.80;100.00
44934;BME280;30667;43.614;1.442;2023-05-02T04:25:35;100465.06;;;11.75;100.00
44934;BME280;30667;43.614;1.442;2023-05-02T04:28:00;100464.78;;;11.76;100.00
44934;BME280;30667;43.614;1.442;2023-05-02T04:30:26;100469.13;;;11.72;100.00
44934;BME280;30667;43.614;1.442;2023-05-02T04:32:51;100471.03;;;11.72;100.00
44934;BME280;30667;43.614;1.442;2023-05-02T04:35:17;100468.06;;;11.68;100.00
44934;BME280;30667;43.614;1.442;2023-05-02T04:37:43;100472.66;;;11.73;100.00
44934;BME280;30667;43.614;1.442;2023-05-02T04:40:08;100476.72;;;11.75;100.00
44934;BME280;30667;43.614;1.442;2023-05-02T04:42:34;100470.22;;;11.71;100.00
44934;BME280;30667;43.614;1.442;2023-05-02T04:45:00;100472.66;;;11.73;100.00
44934;BME280;30667;43.614;1.442;2023-05-02T04:47:25;100470.78;;;11.68;100.00
44934;BME280;30667;43.614;1.442;2023-05-02T04:49:50;100476.44;;;11.72;100.00
44934;BME280;30667;43.614;1.442;2023-05-02T04:52:16;100467.22;;;11.68;100.00
44934;BME280;30667;43.614;1.442;2023-05-02T04:54:42;100466.94;;;11.69;100.00
44934;BME280;30667;43.614;1.442;2023-05-02T04:57:08;100467.78;;;11.64;100.00
44934;BME280;30667;43.614;1.442;2023-05-02T04:59:34;100480.53;;;11.64;100.00
44934;BME280;30667;43.614;1.442;2023-05-02T05:02:00;100484.03;;;11.59;100.00
44934;BME280;30667;43.614;1.442;2023-05-02T05:04:25;100487.28;;;11.61;100.00
44934;BME280;30667;43.614;1.442;2023-05-02T05:06:51;100497.59;;;11.59;100.00
44934;BME280;30667;43.614;1.442;2023-05-02T05:09:16;100502.75;;;11.61;100.00
44934;BME280;30667;43.614;1.442;2023-05-02T05:11:42;100500.03;;;11.61;100.00
44934;BME280;30667;43.614;1.442;2023-05-02T05:14:08;100507.38;;;11.55;100.00
44934;BME280;30667;43.614;1.442;2023-05-02T05:16:33;100502.75;;;11.51;100.00
44934;BME280;30667;43.614;1.442;2023-05-02T05:18:59;100502.22;;;11.54;100.00
44934;BME280;30667;43.614;1.442;2023-05-02T05:21:24;100512.53;;;11.57;100.00
44934;BME280;30667;43.614;1.442;2023-05-02T05:23:52;100518.75;;;11.52;100.00
44934;BME280;30667;43.614;1.442;2023-05-02T05:26:17;100511.97;;;11.50;100.00
44934;BME280;30667;43.614;1.442;2023-05-02T05:28:43;100514.41;;;11.51;100.00
44934;BME280;30667;43.614;1.442;2023-05-02T05:31:10;100515.50;;;11.45;100.00
44934;BME280;30667;43.614;1.442;2023-05-02T05:33:37;100515.50;;;11.45;100.00
44934;BME280;30667;43.614;1.442;2023-05-02T05:36:07;100510.59;;;11.47;100.00
44934;BME280;30667;43.614;1.442;2023-05-02T05:38:33;100523.88;;;11.49;100.00
44934;BME280;30667;43.614;1.442;2023-05-02T05:40:58;100515.22;;;11.52;100.00
44934;BME280;30667;43.614;1.442;2023-05-02T05:43:24;100514.94;;;11.53;100.00
44934;BME280;30667;43.614;1.442;2023-05-02T05:45:54;100509.78;;;11.52;100.00
44934;BME280;30667;43.614;1.442;2023-05-02T05:48:20;100516.03;;;11.52;100.00
44934;BME280;30667;43.614;1.442;2023-05-02T05:50:45;100518.47;;;11.64;100.00
44934;BME280;30667;43.614;1.442;2023-05-02T05:53:12;100517.09;;;11.72;100.00
44934;BME280;30667;43.614;1.442;2023-05-02T05:55:38;100522.53;;;11.72;100.00
44934;BME280;30667;43.614;1.442;2023-05-02T05:58:03;100524.16;;;11.78;100.00
44934;BME280;30667;43.614;1.442;2023-05-02T06:00:29;100519.00;;;11.81;100.00
44934;BME280;30667;43.614;1.442;2023-05-02T06:02:55;100510.84;;;11.81;100.00
44934;BME280;30667;43.614;1.442;2023-05-02T06:05:20;100518.19;;;11.86;100.00
44934;BME280;30667;43.614;1.442;2023-05-02T06:07:46;100514.13;;;11.89;100.00
44934;BME280;30667;43.614;1.442;2023-05-02T06:10:11;100522.53;;;11.92;100.00
44934;BME280;30667;43.614;1.442;2023-05-02T06:12:37;100512.75;;;11.96;100.00
44934;BME280;30667;43.614;1.442;2023-05-02T06:15:02;100515.44;;;11.91;100.00
44934;BME280;30667;43.614;1.442;2023-05-02T06:17:28;100512.34;;;12.49;100.00
44934;BME280;30667;43.614;1.442;2023-05-02T06:19:53;100518.09;;;12.32;100.00
44934;BME280;30667;43.614;1.442;2023-05-02T06:22:18;100521.13;;;12.21;100.00
44934;BME280;30667;43.614;1.442;2023-05-02T06:24:44;100522.47;;;12.18;100.00
44934;BME280;30667;43.614;1.442;2023-05-02T06:27:09;100520.03;;;12.16;100.00
44934;BME280;30667;43.614;1.442;2023-05-02T06:29:34;100525.97;;;12.24;100.00
44934;BME280;30667;43.614;1.442;2023-05-02T06:32:00;100520.53;;;12.24;100.00
44934;BME280;30667;43.614;1.442;2023-05-02T06:34:25;100529.50;;;12.29;100.00
44934;BME280;30667;43.614;1.442;2023-05-02T06:36:54;100523.22;;;12.34;100.00
44934;BME280;30667;43.614;1.442;2023-05-02T06:39:23;100519.94;;;12.42;100.00
44934;BME280;30667;43.614;1.442;2023-05-02T06:41:49;100526.19;;;12.48;100.00
44934;BME280;30667;43.614;1.442;2023-05-02T06:44:14;100519.88;;;12.58;100.00
44934;BME280;30667;43.614;1.442;2023-05-02T06:46:40;100522.81;;;12.66;100.00
44934;BME280;30667;43.614;1.442;2023-05-02T06:49:06;100527.13;;;12.72;100.00
44934;BME280;30667;43.614;1.442;2023-05-02T06:51:31;100524.94;;;12.75;100.00
44934;BME280;30667;43.614;1.442;2023-05-02T06:53:57;100524.09;;;12.79;100.00
44934;BME280;30667;43.614;1.442;2023-05-02T06:56:25;100531.97;;;12.81;100.00
44934;BME280;30667;43.614;1.442;2023-05-02T06:58:51;100523.78;;;12.86;100.00
44934;BME280;30667;43.614;1.442;2023-05-02T07:01:17;100529.22;;;12.91;100.00
44934;BME280;30667;43.614;1.442;2023-05-02T07:03:42;100526.72;;;13.00;100.00
44934;BME280;30667;43.614;1.442;2023-05-02T07:06:08;100520.44;;;13.04;100.00
44934;BME280;30667;43.614;1.442;2023-05-02T07:08:33;100516.59;;;13.11;100.00
44934;BME280;30667;43.614;1.442;2023-05-02T07:10:59;100515.47;;;13.17;100.00
44934;BME280;30667;43.614;1.442;2023-05-02T07:13:25;100517.06;;;13.23;100.00
44934;BME280;30667;43.614;1.442;2023-05-02T07:15:50;100517.81;;;13.29;100.00
44934;BME280;30667;43.614;1.442;2023-05-02T07:18:17;100519.38;;;13.40;100.00
44934;BME280;30667;43.614;1.442;2023-05-02T07:20:42;100523.94;;;13.50;100.00
44934;BME280;30667;43.614;1.442;2023-05-02T07:23:07;100521.44;;;13.58;100.00
44934;BME280;30667;43.614;1.442;2023-05-02T07:25:33;100516.44;;;13.71;100.00
44934;BME280;30667;43.614;1.442;2023-05-02T07:27:59;100520.53;;;13.68;100.00
44934;BME280;30667;43.614;1.442;2023-05-02T07:30:24;100517.13;;;13.81;100.00
44934;BME280;30667;43.614;1.442;2023-05-02T07:32:50;100523.63;;;13.86;100.00
44934;BME280;30667;43.614;1.442;2023-05-02T07:35:15;100521.38;;;13.93;100.00
44934;BME280;30667;43.614;1.442;2023-05-02T07:37:41;100523.75;;;13.99;100.00
44934;BME280;30667;43.614;1.442;2023-05-02T07:40:07;100519.91;;;14.06;100.00
44934;BME280;30667;43.614;1.442;2023-05-02T07:42:33;100521.16;;;14.13;100.00
44934;BME280;30667;43.614;1.442;2023-05-02T07:44:59;100530.50;;;14.07;100.00
44934;BME280;30667;43.614;1.442;2023-05-02T07:47:24;100535.88;;;14.12;100.00
44934;BME280;30667;43.614;1.442;2023-05-02T07:49:51;100540.09;;;14.24;100.00
44934;BME280;30667;43.614;1.442;2023-05-02T07:52:18;100529.72;;;14.26;100.00
44934;BME280;30667;43.614;1.442;2023-05-02T07:54:43;100531.28;;;14.32;100.00
44934;BME280;30667;43.614;1.442;2023-05-02T07:57:10;100527.69;;;14.37;100.00
44934;BME280;30667;43.614;1.442;2023-05-02T07:59:37;100531.78;;;14.39;100.00
44934;BME280;30667;43.614;1.442;2023-05-02T08:02:03;100530.06;;;14.43;100.00
44934;BME280;30667;43.614;1.442;2023-05-02T08:04:28;100534.13;;;14.46;100.00
44934;BME280;30667;43.614;1.442;2023-05-02T08:06:54;100530.25;;;14.52;100.00
44934;BME280;30667;43.614;1.442;2023-05-02T08:09:19;100534.28;;;14.54;100.00
44934;BME280;30667;43.614;1.442;2023-05-02T08:11:45;100525.53;;;14.58;100.00
44934;BME280;30667;43.614;1.442;2023-05-02T08:14:11;100532.56;;;14.64;100.00
44934;BME280;30667;43.614;1.442;2023-05-02T08:16:36;100521.81;;;14.73;100.00
44934;BME280;30667;43.614;1.442;2023-05-02T08:19:01;100525.75;;;14.85;100.00
44934;BME280;30667;43.614;1.442;2023-05-02T08:21:27;100523.91;;;14.81;100.00
44934;BME280;30667;43.614;1.442;2023-05-02T08:23:57;100524.63;;;14.86;100.00
44934;BME280;30667;43.614;1.442;2023-05-02T08:26:22;100522.00;;;15.00;100.00
44934;BME280;30667;43.614;1.442;2023-05-02T08:28:52;100517.94;;;14.98;100.00
44934;BME280;30667;43.614;1.442;2023-05-02T08:31:17;100521.72;;;15.02;100.00
44934;BME280;30667;43.614;1.442;2023-05-02T08:33:44;100515.13;;;15.03;100.00
44934;BME280;30667;43.614;1.442;2023-05-02T08:36:13;100516.69;;;15.09;100.00
44934;BME280;30667;43.614;1.442;2023-05-02T08:38:40;100518.22;;;15.15;100.00
44934;BME280;30667;43.614;1.442;2023-05-02T08:41:14;100519.56;;;15.18;100.00
44934;BME280;30667;43.614;1.442;2023-05-02T08:43:41;100510.50;;;15.22;100.00
44934;BME280;30667;43.614;1.442;2023-05-02T08:46:07;100524.41;;;15.21;100.00
44934;BME280;30667;43.614;1.442;2023-05-02T08:48:35;100529.50;;;15.28;100.00
44934;BME280;30667;43.614;1.442;2023-05-02T08:51:02;100528.16;;;15.25;100.00
44934;BME280;30667;43.614;1.442;2023-05-02T08:53:31;100539.22;;;15.34;100.00
44934;BME280;30667;43.614;1.442;2023-05-02T08:55:56;100538.03;;;15.40;100.00
44934;BME280;30667;43.614;1.442;2023-05-02T08:58:23;100534.28;;;15.36;100.00
44934;BME280;30667;43.614;1.442;2023-05-02T09:00:51;100537.44;;;15.43;100.00
44934;BME280;30667;43.614;1.442;2023-05-02T09:03:31;100536.59;;;15.42;100.00
44934;BME280;30667;43.614;1.442;2023-05-02T09:06:11;100533.50;;;15.49;100.00
44934;BME280;30667;43.614;1.442;2023-05-02T09:08:41;100532.44;;;15.64;100.00
44934;BME280;30667;43.614;1.442;2023-05-02T09:11:08;100522.22;;;15.56;100.00
44934;BME280;30667;43.614;1.442;2023-05-02T09:13:38;100530.03;;;15.62;100.00
44934;BME280;30667;43.614;1.442;2023-05-02T09:18:39;100521.16;;;15.71;100.00
44934;BME280;30667;43.614;1.442;2023-05-02T09:21:10;100519.69;;;15.78;100.00
44934;BME280;30667;43.614;1.442;2023-05-02T09:23:43;100525.94;;;15.79;100.00
44934;BME280;30667;43.614;1.442;2023-05-02T09:26:28;100518.63;;;15.74;100.00
44934;BME280;30667;43.614;1.442;2023-05-02T09:28:56;100514.53;;;15.77;100.00
44934;BME280;30667;43.614;1.442;2023-05-02T09:31:23;100523.41;;;15.83;100.00
44934;BME280;30667;43.614;1.442;2023-05-02T09:33:52;100530.00;;;15.95;100.00
44934;BME280;30667;43.614;1.442;2023-05-02T09:36:20;100520.72;;;15.96;100.00
44934;BME280;30667;43.614;1.442;2023-05-02T09:38:47;100517.78;;;15.93;100.00
44934;BME280;30667;43.614;1.442;2023-05-02T09:41:13;100526.00;;;16.07;100.00
44934;BME280;30667;43.614;1.442;2023-05-02T09:43:40;100518.31;;;16.09;100.00
44934;BME280;30667;43.614;1.442;2023-05-02T09:46:10;100518.72;;;16.02;100.00
44934;BME280;30667;43.614;1.442;2023-05-02T09:48:55;100517.97;;;15.96;100.00
44934;BME280;30667;43.614;1.442;2023-05-02T09:51:22;100509.31;;;15.94;100.00
44934;BME280;30667;43.614;1.442;2023-05-02T09:53:48;100511.75;;;16.10;100.00
44934;BME280;30667;43.614;1.442;2023-05-02T09:56:14;100508.38;;;16.13;100.00
44934;BME280;30667;43.614;1.442;2023-05-02T09:58:40;100506.50;;;16.13;100.00
44934;BME280;30667;43.614;1.442;2023-05-02T10:01:05;100500.84;;;16.10;100.00
44934;BME280;30667;43.614;1.442;2023-05-02T10:03:35;100501.53;;;16.15;100.00
44934;BME280;30667;43.614;1.442;2023-05-02T10:06:02;100492.31;;;16.25;100.00
44934;BME280;30667;43.614;1.442;2023-05-02T10:08:32;100492.81;;;16.27;100.00
44934;BME280;30667;43.614;1.442;2023-05-02T10:10:59;100488.19;;;16.14;100.00
44934;BME280;30667;43.614;1.442;2023-05-02T10:13:26;100490.00;;;16.19;100.00
44934;BME280;30667;43.614;1.442;2023-05-02T10:15:59;100479.78;;;16.24;100.00
44934;BME280;30667;43.614;1.442;2023-05-02T10:19:02;100474.91;;;16.49;100.00
44934;BME280;30667;43.614;1.442;2023-05-02T10:21:31;100484.41;;;16.51;100.00
44934;BME280;30667;43.614;1.442;2023-05-02T10:23:57;100480.78;;;16.28;100.00
44934;BME280;30667;43.614;1.442;2023-05-02T10:26:25;100473.31;;;16.34;100.00
44934;BME280;30667;43.614;1.442;2023-05-02T10:28:52;100476.44;;;16.41;100.00
44934;BME280;30667;43.614;1.442;2023-05-02T10:31:21;100470.88;;;16.32;100.00
44934;BME280;30667;43.614;1.442;2023-05-02T10:33:49;100469.38;;;16.26;100.00
44934;BME280;30667;43.614;1.442;2023-05-02T10:36:20;100458.88;;;16.20;100.00
44934;BME280;30667;43.614;1.442;2023-05-02T10:38:46;100456.03;;;16.11;100.00
44934;BME280;30667;43.614;1.442;2023-05-02T10:41:18;100465.13;;;16.06;100.00
44934;BME280;30667;43.614;1.442;2023-05-02T10:43:46;100464.81;;;16.08;100.00
44934;BME280;30667;43.614;1.442;2023-05-02T10:46:30;100464.72;;;16.13;100.00
44934;BME280;30667;43.614;1.442;2023-05-02T10:51:29;100468.88;;;16.10;100.00
44934;BME280;30667;43.614;1.442;2023-05-02T10:59:29;100456.94;;;16.20;100.00
44934;BME280;30667;43.614;1.442;2023-05-02T11:01:55;100446.13;;;16.15;100.00
44934;BME280;30667;43.614;1.442;2023-05-02T11:04:21;100451.47;;;16.20;100.00
44934;BME280;30667;43.614;1.442;2023-05-02T11:11:47;100431.88;;;16.18;100.00
44934;BME280;30667;43.614;1.442;2023-05-02T11:19:28;100426.28;;;16.23;100.00
44934;BME280;30667;43.614;1.442;2023-05-02T11:24:41;100411.44;;;16.29;100.00
44934;BME280;30667;43.614;1.442;2023-05-02T11:30:09;100416.06;;;16.29;100.00
44934;BME280;30667;43.614;1.442;2023-05-02T11:35:17;100401.06;;;16.77;99.31
44934;BME280;30667;43.614;1.442;2023-05-02T11:37:52;100404.81;;;17.03;91.21
44934;BME280;30667;43.614;1.442;2023-05-02T11:40:18;100395.72;;;16.71;100.00
44934;BME280;30667;43.614;1.442;2023-05-02T11:42:43;100402.25;;;17.07;100.00
44934;BME280;30667;43.614;1.442;2023-05-02T11:45:09;100402.25;;;17.07;98.35
44934;BME280;30667;43.614;1.442;2023-05-02T11:47:35;100399.41;;;17.43;88.76
44934;BME280;30667;43.614;1.442;2023-05-02T11:50:03;100404.75;;;17.17;100.00
44934;BME280;30667;43.614;1.442;2023-05-02T11:52:29;100407.28;;;16.91;100.00
44934;BME280;30667;43.614;1.442;2023-05-02T11:54:56;100399.94;;;17.23;100.00
44934;BME280;30667;43.614;1.442;2023-05-02T11:57:22;100396.13;;;17.01;100.00
44934;BME280;30667;43.614;1.442;2023-05-02T11:59:55;100392.63;;;17.10;96.54
44934;BME280;30667;43.614;1.442;2023-05-02T12:02:41;100384.88;;;17.03;98.63
44934;BME280;30667;43.614;1.442;2023-05-02T12:05:08;100386.97;;;17.29;93.61
44934;BME280;30667;43.614;1.442;2023-05-02T12:10:08;100383.28;;;17.33;94.34
44934;BME280;30667;43.614;1.442;2023-05-02T12:12:34;100382.81;;;17.40;91.38
44934;BME280;30667;43.614;1.442;2023-05-02T12:15:07;100388.94;;;17.37;91.68
44934;BME280;30667;43.614;1.442;2023-05-02T12:17:36;100385.41;;;17.36;90.11
44934;BME280;30667;43.614;1.442;2023-05-02T12:20:04;100383.91;;;17.30;99.66
44934;BME280;30667;43.614;1.442;2023-05-02T12:22:30;100375.97;;;17.20;94.18
44934;BME280;30667;43.614;1.442;2023-05-02T12:24:56;100382.44;;;17.55;89.07
44934;BME280;30667;43.614;1.442;2023-05-02T12:27:22;100376.91;;;17.47;93.52
44934;BME280;30667;43.614;1.442;2023-05-02T12:29:48;100390.06;;;17.76;83.32
44934;BME280;30667;43.614;1.442;2023-05-02T12:32:14;100374.47;;;17.85;80.29
44934;BME280;30667;43.614;1.442;2023-05-02T12:34:44;100370.34;;;17.56;91.24
44934;BME280;30667;43.614;1.442;2023-05-02T12:37:10;100371.72;;;17.76;76.77
44934;BME280;30667;43.614;1.442;2023-05-02T12:39:40;100373.50;;;17.41;90.45
44934;BME280;30667;43.614;1.442;2023-05-02T12:42:10;100376.72;;;17.43;91.13
44934;BME280;30667;43.614;1.442;2023-05-02T12:44:37;100374.09;;;17.69;81.89
44934;BME280;30667;43.614;1.442;2023-05-02T12:47:06;100363.97;;;17.78;83.43
44934;BME280;30667;43.614;1.442;2023-05-02T12:49:32;100363.19;;;17.87;79.54
44934;BME280;30667;43.614;1.442;2023-05-02T12:51:58;100367.25;;;17.89;84.53
44934;BME280;30667;43.614;1.442;2023-05-02T12:54:24;100365.44;;;17.85;82.49
44934;BME280;30667;43.614;1.442;2023-05-02T12:56:51;100375.38;;;17.63;84.58
44934;BME280;30667;43.614;1.442;2023-05-02T12:59:30;100373.22;;;17.51;98.21
44934;BME280;30667;43.614;1.442;2023-05-02T13:01:57;100369.53;;;17.56;79.63
44934;BME280;30667;43.614;1.442;2023-05-02T13:04:42;100362.97;;;17.66;71.92
44934;BME280;30667;43.614;1.442;2023-05-02T13:07:08;100357.97;;;17.68;72.30
44934;BME280;30667;43.614;1.442;2023-05-02T13:09:33;100362.81;;;17.62;92.28
44934;BME280;30667;43.614;1.442;2023-05-02T13:11:58;100358.59;;;17.56;84.50
44934;BME280;30667;43.614;1.442;2023-05-02T13:14:25;100344.50;;;17.31;100.00
44934;BME280;30667;43.614;1.442;2023-05-02T13:16:50;100347.72;;;17.33;98.48
44934;BME280;30667;43.614;1.442;2023-05-02T13:19:19;100339.75;;;17.46;78.48
44934;BME280;30667;43.614;1.442;2023-05-02T13:21:45;100332.66;;;17.93;72.55
44934;BME280;30667;43.614;1.442;2023-05-02T13:24:11;100333.22;;;17.73;81.98
44934;BME280;30667;43.614;1.442;2023-05-02T13:26:37;100335.03;;;17.86;76.93
44934;BME280;30667;43.614;1.442;2023-05-02T13:29:02;100347.03;;;17.59;90.49
44934;BME280;30667;43.614;1.442;2023-05-02T13:31:28;100338.41;;;17.83;72.21
44934;BME280;30667;43.614;1.442;2023-05-02T13:33:54;100340.56;;;18.12;68.70
44934;BME280;30667;43.614;1.442;2023-05-02T13:36:19;100330.97;;;17.75;90.79
44934;BME280;30667;43.614;1.442;2023-05-02T13:38:45;100332.59;;;17.36;100.00